Cincinnati, Ohio
Current Conditions -  °F | °C
As of 9:53 AM on Saturday 25 Oct 2014 (Local Time) from KLUK Reporting Station
Haze Haze  
Wind Chill: 51°   Ceiling: 4400
Heat Index: 51°   Visibility: 6mi
Dew Point: 49°   Wind: 5mph
Humidity: 92%   Direction: 210°SSW
Pressure: 30.01"   Gusts: NA
Location:  39.11°N, 84.5°W
Report Text: KLUK 251353Z 21004KT 6SM BR FEW033 OVC044 11/09 A3001 RMK AO2 SLP163 T01060094
Loading
Personal Weather Stations






























Interactive Weather Map
Tropical Storm Tracking
New forecast layout! Learn more

10-Day Weather Forecast

Advertisements
Track Severe Weather on mobile